Time;durP1;ratioP1;P1;durP2;ratioP2;P2;SDS_P1;SDS_P2;PMS_P1;PMS_P2;Temp;Humidity;BMP_temperature;BMP_pressure;BME280_temperature;BME280_humidity;BME280_pressure;Samples;Min_cycle;Max_cycle;Signal;HPM_P1;HPM_P2
2023/05/22 00:01:05;;;;;;;6.00;5.50;;;22.40;80.70;;;;;;4998693;28;20460;-41
2023/05/22 00:03:32;;;;;;;5.40;5.00;;;22.40;80.80;;;;;;4994574;28;20464;-42
2023/05/22 00:05:59;;;;;;;5.23;4.83;;;22.40;80.70;;;;;;5005840;28;20555;-41
2023/05/22 00:08:27;;;;;;;6.07;5.60;;;22.40;80.70;;;;;;5006993;28;20464;-41
2023/05/22 00:10:54;;;;;;;5.20;4.70;;;22.40;80.70;;;;;;5006044;28;20490;-41
2023/05/22 00:13:21;;;;;;;5.57;5.10;;;22.40;80.70;;;;;;5002077;28;20460;-41
2023/05/22 00:15:47;;;;;;;5.03;4.63;;;22.40;80.70;;;;;;5000053;28;20484;-41
2023/05/22 00:18:14;;;;;;;5.50;4.70;;;22.40;80.60;;;;;;5004634;28;20836;-41
2023/05/22 00:20:41;;;;;;;5.70;5.20;;;22.40;80.70;;;;;;5004340;28;20466;-42
2023/05/22 00:23:09;;;;;;;5.40;5.00;;;22.40;80.70;;;;;;5005831;28;20475;-43
2023/05/22 00:25:37;;;;;;;7.73;5.30;;;22.40;80.60;;;;;;5005003;28;20465;-41
2023/05/22 00:28:04;;;;;;;4.93;4.63;;;22.30;80.40;;;;;;5005881;28;20471;-41
2023/05/22 00:30:32;;;;;;;6.07;5.57;;;22.30;80.50;;;;;;5008869;28;20554;-41
2023/05/22 00:32:58;;;;;;;4.90;4.50;;;22.30;80.50;;;;;;5003434;28;20463;-41
2023/05/22 00:35:25;;;;;;;5.00;4.60;;;22.30;80.40;;;;;;5003950;28;20471;-43
2023/05/22 00:37:52;;;;;;;6.17;5.57;;;22.40;80.60;;;;;;5004676;28;20470;-42
2023/05/22 00:40:18;;;;;;;6.10;5.53;;;22.30;80.40;;;;;;5006124;28;20467;-41
2023/05/22 00:42:46;;;;;;;4.53;4.23;;;22.30;80.40;;;;;;5010519;28;20974;-41
2023/05/22 00:45:14;;;;;;;5.00;4.60;;;22.30;80.40;;;;;;5006888;28;20462;-42
2023/05/22 00:47:41;;;;;;;5.40;4.90;;;22.30;80.40;;;;;;5004077;28;20871;-41
2023/05/22 00:50:10;;;;;;;5.43;4.90;;;22.30;80.30;;;;;;5004292;28;20456;-41
2023/05/22 00:52:40;;;;;;;5.07;4.67;;;22.30;80.40;;;;;;5003033;28;20462;-41
2023/05/22 00:55:08;;;;;;;4.90;4.50;;;22.30;80.30;;;;;;5007156;28;20511;-41
2023/05/22 00:57:36;;;;;;;5.43;5.00;;;22.30;80.40;;;;;;5001917;28;20522;-41
2023/05/22 01:00:05;;;;;;;4.97;4.57;;;22.30;80.30;;;;;;5007133;28;20460;-41
2023/05/22 01:02:33;;;;;;;5.20;4.70;;;22.30;80.30;;;;;;5001587;28;20844;-41
2023/05/22 01:04:59;;;;;;;5.00;4.60;;;22.30;80.30;;;;;;5008167;28;20464;-42
2023/05/22 01:07:26;;;;;;;5.10;4.60;;;22.30;80.30;;;;;;5006690;28;20471;-41
2023/05/22 01:09:54;;;;;;;4.90;4.40;;;22.30;80.30;;;;;;5001230;28;20460;-41
2023/05/22 01:12:27;;;;;;;5.00;4.60;;;22.30;80.20;;;;;;5003499;28;20828;-42
2023/05/22 01:15:03;;;;;;;5.23;4.83;;;22.30;80.30;;;;;;4998237;28;20892;-42
2023/05/22 01:17:39;;;;;;;5.13;4.73;;;22.30;80.30;;;;;;5003962;28;20525;-42
2023/05/22 01:20:16;;;;;;;5.13;4.63;;;22.30;80.30;;;;;;5007464;28;20459;-41
2023/05/22 01:23:15;;;;;;;4.80;4.40;;;22.30;80.40;;;;;;4997229;28;20486;-40
2023/05/22 01:26:12;;;;;;;5.57;5.17;;;22.30;80.30;;;;;;4980061;28;20820;-41
2023/05/22 01:29:00;;;;;;;5.73;4.30;;;22.20;80.30;;;;;;4995158;28;20459;-41
2023/05/22 01:31:31;;;;;;;5.10;4.70;;;22.20;80.20;;;;;;5000207;28;20461;-40
2023/05/22 01:34:01;;;;;;;4.70;4.30;;;22.20;80.10;;;;;;5003129;28;20469;-43
2023/05/22 01:36:31;;;;;;;5.27;4.80;;;22.20;80.10;;;;;;5004954;28;20479;-40
2023/05/22 01:39:00;;;;;;;5.07;4.67;;;22.20;80.10;;;;;;5005620;28;20466;-43
2023/05/22 01:41:28;;;;;;;3.90;3.60;;;22.20;80.10;;;;;;5004557;28;20463;-43
2023/05/22 01:43:55;;;;;;;4.33;4.03;;;22.20;80.10;;;;;;4999420;28;20464;-41
2023/05/22 01:46:25;;;;;;;4.63;4.23;;;22.20;80.10;;;;;;5001806;28;20469;-43
2023/05/22 01:48:53;;;;;;;4.60;4.20;;;22.20;80.10;;;;;;5003705;28;21493;-42
2023/05/22 01:51:26;;;;;;;3.90;3.60;;;22.20;80.10;;;;;;5007303;28;20448;-42
2023/05/22 01:54:04;;;;;;;4.97;4.57;;;22.20;80.10;;;;;;5003765;28;20452;-42
2023/05/22 01:56:37;;;;;;;4.43;4.00;;;22.20;80.00;;;;;;5005734;28;20487;-42
2023/05/22 01:59:10;;;;;;;4.57;4.27;;;22.20;80.00;;;;;;5001816;28;20893;-42
2023/05/22 02:01:39;;;;;;;4.30;4.00;;;22.20;80.10;;;;;;5000818;28;20500;-42
2023/05/22 02:04:10;;;;;;;4.13;3.83;;;22.20;80.00;;;;;;5005994;28;20466;-42
2023/05/22 02:06:37;;;;;;;4.60;4.20;;;22.20;80.00;;;;;;5002104;28;20542;-42
2023/05/22 02:09:05;;;;;;;4.10;3.80;;;22.20;80.00;;;;;;4998946;28;20475;-42
2023/05/22 02:11:33;;;;;;;5.33;4.90;;;22.20;80.00;;;;;;5005040;28;20494;-42
2023/05/22 02:14:01;;;;;;;5.10;4.60;;;22.20;80.00;;;;;;5000824;28;20848;-42
2023/05/22 02:16:29;;;;;;;4.57;3.63;;;22.20;80.00;;;;;;5007178;28;20841;-42
2023/05/22 02:19:04;;;;;;;4.63;4.30;;;22.20;80.00;;;;;;5003731;28;20474;-42
2023/05/22 02:21:33;;;;;;;4.95;4.55;;;22.20;80.00;;;;;;5011364;28;20970;-42
2023/05/22 02:24:00;;;;;;;4.05;3.75;;;22.20;80.00;;;;;;5004363;28;20251;-43
2023/05/22 02:26:27;;;;;;;5.10;4.67;;;22.20;80.00;;;;;;5009501;28;20196;-42
2023/05/22 02:28:53;;;;;;;4.47;4.17;;;22.20;80.00;;;;;;5010997;28;20456;-43
2023/05/22 02:31:20;;;;;;;4.80;4.40;;;22.20;79.90;;;;;;5010913;28;20477;-42
2023/05/22 02:33:47;;;;;;;4.03;3.63;;;22.20;80.00;;;;;;5007504;28;20456;-42
2023/05/22 02:36:13;;;;;;;4.90;4.50;;;22.20;79.90;;;;;;5009105;28;20491;-43
2023/05/22 02:38:41;;;;;;;4.23;3.93;;;22.20;79.90;;;;;;5006857;28;20471;-42
2023/05/22 02:41:08;;;;;;;4.50;4.10;;;22.20;79.90;;;;;;5012397;28;20452;-42
2023/05/22 02:43:35;;;;;;;3.87;3.57;;;22.20;80.00;;;;;;5006203;28;20886;-42
2023/05/22 02:46:01;;;;;;;4.77;4.47;;;22.20;79.80;;;;;;5008933;28;20479;-42
2023/05/22 02:48:29;;;;;;;4.75;4.22;;;22.20;79.80;;;;;;5007999;28;20462;-43
2023/05/22 02:50:55;;;;;;;4.30;4.00;;;22.10;79.70;;;;;;5008501;28;20263;-43
2023/05/22 02:53:22;;;;;;;4.70;4.30;;;22.10;79.70;;;;;;5008821;28;20463;-42
2023/05/22 02:55:51;;;;;;;4.43;4.03;;;22.20;79.80;;;;;;5000942;28;20491;-42
2023/05/22 02:58:20;;;;;;;4.50;4.10;;;22.10;79.70;;;;;;5008968;28;20456;-42
2023/05/22 03:00:46;;;;;;;5.23;4.73;;;22.10;79.70;;;;;;5004357;28;20522;-42
2023/05/22 03:03:13;;;;;;;4.13;3.83;;;22.10;79.70;;;;;;5004408;28;20828;-43
2023/05/22 03:05:39;;;;;;;3.93;3.63;;;22.10;79.70;;;;;;5008822;28;20205;-42
2023/05/22 03:08:06;;;;;;;4.20;3.77;;;22.10;79.60;;;;;;5004148;28;20470;-42
2023/05/22 03:10:33;;;;;;;4.00;3.70;;;22.10;79.60;;;;;;5010053;28;20468;-42
2023/05/22 03:13:01;;;;;;;3.93;3.63;;;22.10;79.60;;;;;;5006565;28;20537;-42
2023/05/22 03:15:27;;;;;;;5.30;4.80;;;22.10;79.60;;;;;;5010280;28;20476;-43
2023/05/22 03:17:54;;;;;;;4.47;4.07;;;22.10;79.60;;;;;;5008170;28;20463;-42
2023/05/22 03:20:21;;;;;;;5.07;4.67;;;22.10;79.60;;;;;;5009212;28;20559;-42
2023/05/22 03:22:48;;;;;;;4.80;4.40;;;22.10;79.60;;;;;;5004768;28;20971;-43
2023/05/22 03:25:14;;;;;;;4.30;3.90;;;22.10;79.70;;;;;;5009427;28;20486;-43
2023/05/22 03:27:41;;;;;;;4.10;3.77;;;22.10;79.60;;;;;;5007526;28;20467;-42
2023/05/22 03:30:10;;;;;;;4.70;4.33;;;22.10;79.60;;;;;;5007217;28;20464;-43
2023/05/22 03:32:37;;;;;;;3.97;3.63;;;22.10;79.60;;;;;;5008967;28;20459;-42
2023/05/22 03:35:05;;;;;;;3.63;3.33;;;22.10;79.60;;;;;;5003122;28;20468;-43
2023/05/22 03:37:31;;;;;;;5.00;4.60;;;22.10;79.60;;;;;;5007407;28;20503;-42
2023/05/22 03:39:58;;;;;;;4.43;4.07;;;22.10;79.60;;;;;;5006609;28;20475;-42
2023/05/22 03:42:25;;;;;;;3.57;3.27;;;22.10;79.60;;;;;;5010610;28;20447;-42
2023/05/22 03:44:51;;;;;;;4.10;3.70;;;22.10;79.60;;;;;;5006348;28;20463;-42
2023/05/22 03:47:19;;;;;;;4.80;4.40;;;22.10;79.60;;;;;;5002435;28;20460;-42
2023/05/22 03:49:46;;;;;;;4.13;3.83;;;22.10;79.50;;;;;;5008466;28;20449;-42
2023/05/22 03:52:13;;;;;;;5.07;4.67;;;22.10;79.50;;;;;;5005362;28;20967;-44
2023/05/22 03:54:39;;;;;;;4.70;4.30;;;22.10;79.60;;;;;;5006327;28;20967;-42
2023/05/22 03:57:06;;;;;;;4.85;4.45;;;22.10;79.60;;;;;;5010176;28;20569;-43
2023/05/22 03:59:33;;;;;;;4.50;4.10;;;22.10;79.60;;;;;;5009166;28;20212;-42
2023/05/22 04:02:00;;;;;;;4.20;3.90;;;22.10;79.50;;;;;;5004830;28;20460;-42
2023/05/22 04:04:28;;;;;;;4.10;3.70;;;22.00;79.50;;;;;;5007412;28;21096;-42
2023/05/22 04:06:56;;;;;;;4.43;4.13;;;22.00;79.40;;;;;;5005503;28;20676;-43
2023/05/22 04:09:26;;;;;;;3.60;3.30;;;22.00;79.50;;;;;;5007541;28;20467;-43
2023/05/22 04:11:52;;;;;;;3.20;2.97;;;22.00;79.40;;;;;;5000998;28;20467;-42
2023/05/22 04:14:19;;;;;;;4.70;4.30;;;22.00;79.40;;;;;;5010524;28;20456;-43
2023/05/22 04:16:46;;;;;;;4.63;4.23;;;22.00;79.40;;;;;;5005619;28;20488;-42
2023/05/22 04:19:12;;;;;;;3.87;3.57;;;22.00;79.40;;;;;;5004982;28;20465;-44
2023/05/22 04:21:41;;;;;;;3.90;3.50;;;22.00;79.50;;;;;;5009862;28;20498;-42
2023/05/22 04:24:08;;;;;;;4.47;3.93;;;22.00;79.30;;;;;;5008276;28;20479;-42
2023/05/22 04:26:35;;;;;;;4.47;4.17;;;22.00;79.50;;;;;;4996696;28;21058;-42
2023/05/22 04:29:02;;;;;;;4.03;3.73;;;22.00;79.40;;;;;;5008233;28;20475;-42
2023/05/22 04:31:29;;;;;;;3.47;3.17;;;22.00;79.40;;;;;;5005120;28;20487;-42
2023/05/22 04:33:58;;;;;;;3.53;3.33;;;22.00;79.30;;;;;;5011594;28;20470;-42
2023/05/22 04:36:25;;;;;;;4.03;3.73;;;22.00;79.30;;;;;;5008990;28;20518;-42
2023/05/22 04:38:53;;;;;;;3.63;3.40;;;22.00;79.50;;;;;;4996158;28;20468;-43
2023/05/22 04:41:21;;;;;;;3.90;3.53;;;22.00;79.40;;;;;;5008851;28;20502;-43
2023/05/22 04:43:48;;;;;;;3.03;2.83;;;22.00;79.30;;;;;;5006644;28;20492;-42
2023/05/22 04:46:15;;;;;;;3.83;3.53;;;22.00;79.50;;;;;;5001356;28;20455;-43
2023/05/22 04:48:41;;;;;;;4.33;3.93;;;22.00;79.30;;;;;;5010697;28;20464;-42
2023/05/22 04:51:09;;;;;;;4.10;3.80;;;22.00;79.30;;;;;;5008960;28;20807;-42
2023/05/22 04:53:37;;;;;;;4.03;3.73;;;22.00;80.20;;;;;;5002077;28;20549;-42
2023/05/22 04:56:06;;;;;;;3.60;3.30;;;22.00;79.30;;;;;;4999485;28;20514;-44
2023/05/22 04:58:33;;;;;;;3.60;3.30;;;22.00;79.30;;;;;;5003600;28;20835;-42
2023/05/22 05:01:00;;;;;;;4.03;3.73;;;22.00;79.30;;;;;;5006871;28;20471;-42
2023/05/22 05:03:27;;;;;;;4.10;3.80;;;22.00;79.30;;;;;;4997744;28;20534;-43
2023/05/22 05:05:53;;;;;;;4.60;4.30;;;22.00;79.30;;;;;;5009615;28;20518;-42
2023/05/22 05:08:20;;;;;;;3.70;3.40;;;22.00;79.30;;;;;;5000587;28;20474;-42
2023/05/22 05:10:47;;;;;;;4.43;4.13;;;22.00;79.30;;;;;;5008317;28;20468;-43
2023/05/22 05:13:15;;;;;;;3.50;3.20;;;22.00;79.50;;;;;;4999953;28;20468;-42
2023/05/22 05:15:42;;;;;;;3.80;3.53;;;22.00;79.30;;;;;;5005415;28;20482;-43
2023/05/22 05:18:08;;;;;;;3.83;3.63;;;22.00;79.30;;;;;;4997555;28;20464;-43
2023/05/22 05:20:36;;;;;;;3.60;3.30;;;22.00;79.20;;;;;;5007715;28;20465;-42
2023/05/22 05:23:02;;;;;;;3.58;3.28;;;22.00;79.40;;;;;;5006725;28;20467;-43
2023/05/22 05:25:29;;;;;;;3.60;3.30;;;22.00;79.50;;;;;;5003580;28;20201;-43
2023/05/22 05:27:56;;;;;;;3.70;3.40;;;22.00;79.40;;;;;;5008756;28;20503;-42
2023/05/22 05:30:24;;;;;;;4.50;4.20;;;22.00;79.50;;;;;;5003283;28;20539;-42
2023/05/22 05:32:51;;;;;;;4.00;3.70;;;22.00;79.50;;;;;;5004602;28;20828;-42
2023/05/22 05:35:17;;;;;;;3.40;3.10;;;22.00;79.60;;;;;;5004870;28;20205;-42
2023/05/22 05:37:44;;;;;;;4.13;3.77;;;22.10;79.50;;;;;;5008596;28;20479;-42
2023/05/22 05:40:12;;;;;;;3.97;3.67;;;22.10;79.60;;;;;;5003991;28;20471;-42
2023/05/22 05:42:38;;;;;;;3.20;3.00;;;22.10;79.60;;;;;;5001820;28;20451;-43
2023/05/22 05:45:06;;;;;;;3.53;3.33;;;22.10;79.50;;;;;;5004703;28;20490;-42
2023/05/22 05:47:34;;;;;;;3.23;3.03;;;22.10;79.40;;;;;;5003551;28;20464;-44
2023/05/22 05:50:00;;;;;;;3.37;3.07;;;22.10;79.30;;;;;;5006717;28;20475;-42
2023/05/22 05:52:31;;;;;;;3.50;3.20;;;22.10;79.50;;;;;;5009588;28;20468;-42
2023/05/22 05:54:59;;;;;;;3.63;3.33;;;22.10;79.50;;;;;;5009719;28;20450;-42
2023/05/22 05:57:26;;;;;;;3.30;3.00;;;22.20;79.60;;;;;;5007861;28;20497;-42
2023/05/22 05:59:53;;;;;;;4.00;3.70;;;22.20;79.50;;;;;;5009025;28;20452;-43
2023/05/22 06:02:19;;;;;;;3.40;3.10;;;22.20;79.60;;;;;;5006799;28;20474;-42
2023/05/22 06:04:48;;;;;;;3.00;2.70;;;22.20;79.60;;;;;;5014122;28;20444;-42
2023/05/22 06:07:15;;;;;;;3.83;3.53;;;22.20;79.60;;;;;;5010702;28;20463;-43
2023/05/22 06:09:42;;;;;;;3.60;3.30;;;22.20;79.60;;;;;;5008305;28;20453;-43
2023/05/22 06:12:11;;;;;;;3.33;3.10;;;22.30;79.70;;;;;;5007117;28;20460;-43
2023/05/22 06:14:38;;;;;;;3.73;3.43;;;22.30;79.60;;;;;;5008281;28;20902;-42
2023/05/22 06:17:07;;;;;;;3.30;3.00;;;22.30;79.60;;;;;;5010570;28;20571;-42
2023/05/22 06:19:34;;;;;;;3.10;2.90;;;22.30;79.50;;;;;;5012152;28;20467;-43
2023/05/22 06:22:03;;;;;;;3.70;3.40;;;22.30;79.50;;;;;;5007235;28;20467;-42
2023/05/22 06:24:31;;;;;;;3.00;2.80;;;22.40;79.50;;;;;;5009838;28;20484;-42
2023/05/22 06:26:58;;;;;;;3.10;2.90;;;22.40;79.50;;;;;;5009905;28;20465;-42
2023/05/22 06:29:25;;;;;;;3.00;2.80;;;22.40;79.40;;;;;;5006749;28;20460;-43
2023/05/22 06:31:52;;;;;;;2.70;2.50;;;22.40;79.40;;;;;;5002799;28;20824;-42
2023/05/22 06:34:19;;;;;;;3.43;3.13;;;22.40;79.30;;;;;;5008273;28;20521;-43
2023/05/22 06:36:46;;;;;;;3.43;3.13;;;22.40;79.30;;;;;;5005507;28;20478;-43
2023/05/22 06:39:15;;;;;;;3.57;3.27;;;22.40;79.30;;;;;;5004344;28;20459;-46
2023/05/22 06:41:41;;;;;;;3.13;2.93;;;22.40;79.20;;;;;;5007184;28;20462;-42
2023/05/22 06:44:08;;;;;;;3.50;3.20;;;22.50;79.30;;;;;;5015810;28;20490;-43
2023/05/22 06:46:35;;;;;;;2.80;2.60;;;22.50;79.30;;;;;;5004681;28;20459;-43
2023/05/22 06:49:01;;;;;;;3.20;2.93;;;22.50;79.30;;;;;;4997687;28;20461;-43
2023/05/22 06:51:28;;;;;;;3.80;3.50;;;22.50;79.30;;;;;;5010638;28;20463;-43
2023/05/22 06:53:55;;;;;;;2.90;2.70;;;22.50;79.20;;;;;;5009756;28;20466;-42
2023/05/22 06:56:23;;;;;;;3.13;2.90;;;22.50;79.20;;;;;;5003901;28;20460;-43
2023/05/22 06:58:50;;;;;;;3.60;3.30;;;22.50;79.20;;;;;;5006710;28;20462;-42
2023/05/22 07:01:17;;;;;;;3.47;3.27;;;22.50;79.20;;;;;;5001487;28;20468;-43
2023/05/22 07:03:43;;;;;;;2.87;2.67;;;22.50;79.10;;;;;;5009835;28;20466;-43
2023/05/22 07:06:10;;;;;;;2.57;2.37;;;22.50;79.00;;;;;;5011480;28;20466;-42
2023/05/22 07:08:37;;;;;;;3.37;3.07;;;22.50;79.00;;;;;;5009826;28;20550;-42
2023/05/22 07:11:05;;;;;;;3.30;3.10;;;22.50;79.00;;;;;;5009445;28;20467;-42
2023/05/22 07:13:33;;;;;;;3.77;3.40;;;22.50;79.00;;;;;;5009525;28;20542;-42
2023/05/22 07:16:00;;;;;;;3.10;2.90;;;22.50;79.00;;;;;;5003621;28;20452;-42
2023/05/22 07:18:27;;;;;;;5.10;2.60;;;22.50;79.00;;;;;;5011019;28;20479;-43
2023/05/22 07:20:53;;;;;;;2.70;2.50;;;22.50;78.90;;;;;;5012108;28;20471;-42
2023/05/22 07:23:20;;;;;;;2.80;2.60;;;22.60;79.00;;;;;;5006654;28;20889;-43
2023/05/22 07:25:47;;;;;;;2.73;2.53;;;22.60;79.00;;;;;;5006128;28;20472;-43
2023/05/22 07:28:13;;;;;;;3.23;3.00;;;22.60;79.00;;;;;;5011695;28;20463;-43
2023/05/22 07:30:41;;;;;;;3.23;3.00;;;22.60;79.00;;;;;;5003361;28;20476;-43
2023/05/22 07:33:09;;;;;;;3.23;2.93;;;22.60;79.00;;;;;;5007615;28;20436;-42
2023/05/22 07:35:35;;;;;;;2.73;2.53;;;22.60;78.90;;;;;;5009145;28;20462;-43
2023/05/22 07:38:02;;;;;;;2.73;2.53;;;22.50;78.80;;;;;;5007044;28;20484;-42
2023/05/22 07:40:30;;;;;;;2.87;2.67;;;22.60;78.90;;;;;;5008835;28;20463;-42
2023/05/22 07:42:56;;;;;;;3.30;3.00;;;22.60;78.90;;;;;;5005405;28;20823;-43
2023/05/22 07:45:23;;;;;;;3.10;2.90;;;22.60;78.90;;;;;;5009800;28;20452;-42
2023/05/22 07:47:51;;;;;;;2.57;2.40;;;22.60;78.90;;;;;;5006079;28;20463;-43
2023/05/22 07:50:18;;;;;;;3.90;3.60;;;22.60;78.90;;;;;;5009765;28;20466;-42
2023/05/22 07:52:44;;;;;;;3.13;2.93;;;22.60;78.90;;;;;;5008979;28;20463;-42
2023/05/22 07:55:11;;;;;;;2.90;2.67;;;22.60;78.90;;;;;;5010330;28;20448;-42
2023/05/22 07:57:38;;;;;;;2.60;2.40;;;22.60;78.90;;;;;;5009632;28;20482;-42
2023/05/22 08:00:12;;;;;;;3.97;2.83;;;22.70;78.90;;;;;;5004201;28;20492;-42
2023/05/22 08:02:38;;;;;;;3.33;3.00;;;22.60;79.00;;;;;;5007834;28;20456;-43
2023/05/22 08:05:08;;;;;;;3.33;2.97;;;22.60;80.70;;;;;;5000375;28;20459;-43
2023/05/22 08:07:35;;;;;;;3.43;3.13;;;22.60;80.80;;;;;;5002965;28;20464;-43
2023/05/22 08:10:04;;;;;;;3.00;2.80;;;22.60;79.90;;;;;;5001120;28;20479;-45
2023/05/22 08:12:31;;;;;;;3.83;3.53;;;22.60;80.60;;;;;;5001718;28;20486;-43
2023/05/22 08:14:58;;;;;;;3.77;3.47;;;22.70;80.20;;;;;;5003374;28;20471;-43
2023/05/22 08:17:24;;;;;;;4.80;4.37;;;22.70;80.40;;;;;;5005554;28;20479;-43
2023/05/22 08:19:51;;;;;;;5.93;4.50;;;22.70;80.50;;;;;;5006734;28;20460;-44
2023/05/22 08:22:19;;;;;;;3.83;3.50;;;22.70;80.60;;;;;;5005526;28;20456;-43
2023/05/22 08:24:46;;;;;;;4.90;4.50;;;22.70;80.50;;;;;;5006693;28;21027;-44
2023/05/22 08:27:12;;;;;;;6.17;4.97;;;22.70;80.70;;;;;;5006408;28;21498;-44
2023/05/22 08:29:39;;;;;;;7.83;5.90;;;22.70;80.90;;;;;;5003629;28;20460;-44
2023/05/22 08:32:06;;;;;;;10.43;6.20;;;22.70;81.00;;;;;;4996118;28;20825;-43
2023/05/22 08:34:34;;;;;;;9.70;6.10;;;22.70;82.00;;;;;;5006944;28;20468;-42
2023/05/22 08:37:01;;;;;;;7.63;6.33;;;22.70;82.20;;;;;;5003470;28;20456;-44
2023/05/22 08:39:30;;;;;;;7.80;6.87;;;22.70;82.60;;;;;;5006648;28;20457;-43
2023/05/22 08:41:57;;;;;;;8.30;7.50;;;22.70;82.60;;;;;;5008029;28;20460;-43
2023/05/22 08:44:24;;;;;;;10.70;9.47;;;22.70;83.40;;;;;;5006388;28;20505;-43
2023/05/22 08:46:52;;;;;;;8.40;7.20;;;22.70;84.30;;;;;;4999889;28;20545;-43
2023/05/22 08:49:21;;;;;;;7.77;7.10;;;22.80;84.50;;;;;;5007123;28;20531;-44
2023/05/22 08:51:52;;;;;;;6.93;6.33;;;22.80;85.60;;;;;;5000922;28;20991;-43
2023/05/22 08:54:22;;;;;;;7.80;5.93;;;22.80;84.10;;;;;;5007853;28;20470;-44
2023/05/22 08:56:51;;;;;;;7.97;7.10;;;22.80;84.40;;;;;;5002343;28;20971;-43
2023/05/22 08:59:19;;;;;;;7.67;6.97;;;22.80;84.40;;;;;;5002543;28;20464;-44
2023/05/22 09:01:47;;;;;;;9.43;7.37;;;22.80;84.30;;;;;;5000578;28;20971;-42
2023/05/22 09:04:14;;;;;;;7.70;7.03;;;22.80;84.10;;;;;;5002972;28;20464;-43
2023/05/22 09:06:40;;;;;;;6.93;6.33;;;22.80;84.90;;;;;;4997854;28;20543;-43
2023/05/22 09:09:09;;;;;;;8.10;7.30;;;22.80;84.30;;;;;;5002482;28;20478;-43
2023/05/22 09:11:35;;;;;;;8.60;7.90;;;22.80;84.40;;;;;;5000318;28;20467;-42
2023/05/22 09:14:10;;;;;;;8.20;7.50;;;22.80;84.40;;;;;;5003965;28;20852;-42
2023/05/22 09:16:45;;;;;;;8.07;7.17;;;22.90;84.70;;;;;;4998479;28;20509;-43
2023/05/22 09:19:12;;;;;;;8.80;8.10;;;22.90;84.60;;;;;;5003907;28;20860;-43
2023/05/22 09:21:39;;;;;;;9.90;8.07;;;22.90;84.80;;;;;;4997989;28;20833;-43
2023/05/22 09:24:08;;;;;;;9.77;8.77;;;22.90;85.00;;;;;;5003168;28;20480;-43
2023/05/22 09:26:34;;;;;;;15.07;8.87;;;22.90;84.70;;;;;;5004379;28;20525;-45
2023/05/22 09:29:01;;;;;;;9.07;8.17;;;22.90;85.10;;;;;;5006796;28;20463;-43
2023/05/22 09:31:30;;;;;;;8.50;7.67;;;22.90;85.40;;;;;;4998602;28;20467;-42
2023/05/22 09:33:57;;;;;;;7.50;6.90;;;22.90;85.30;;;;;;5005437;28;20452;-42
2023/05/22 09:36:31;;;;;;;8.40;7.60;;;22.90;85.90;;;;;;5006302;28;20856;-43
2023/05/22 09:39:00;;;;;;;7.13;6.43;;;22.90;85.70;;;;;;5002642;28;20912;-43
2023/05/22 09:41:29;;;;;;;8.23;7.53;;;22.90;85.60;;;;;;5006312;28;20463;-42
2023/05/22 09:43:55;;;;;;;9.00;8.10;;;22.90;85.40;;;;;;5007300;28;20462;-43
2023/05/22 09:46:22;;;;;;;8.23;7.50;;;22.90;85.50;;;;;;4999848;28;20468;-43
2023/05/22 09:48:52;;;;;;;8.33;7.53;;;22.90;85.30;;;;;;5006606;28;20468;-42
2023/05/22 09:51:21;;;;;;;9.60;7.43;;;22.90;85.40;;;;;;5004303;28;20464;-43
2023/05/22 09:53:50;;;;;;;7.43;6.80;;;22.90;85.40;;;;;;5002671;28;20464;-43
2023/05/22 09:56:18;;;;;;;8.87;8.00;;;22.90;85.50;;;;;;5004257;28;20462;-43
2023/05/22 09:58:46;;;;;;;8.10;7.10;;;22.90;85.80;;;;;;5005646;28;20483;-43
2023/05/22 10:01:15;;;;;;;10.87;7.23;;;22.90;86.10;;;;;;5000182;28;20531;-44
2023/05/22 10:03:43;;;;;;;27.47;8.73;;;22.90;86.00;;;;;;5003797;28;21185;-42
2023/05/22 10:06:12;;;;;;;8.43;6.67;;;22.90;86.20;;;;;;4998192;28;20545;-49
2023/05/22 10:08:43;;;;;;;10.10;7.57;;;22.90;86.70;;;;;;5002236;28;20464;-51
2023/05/22 10:11:10;;;;;;;7.50;6.80;;;22.90;86.60;;;;;;5003391;28;20467;-48
2023/05/22 10:13:37;;;;;;;8.07;7.27;;;23.00;87.50;;;;;;5001367;28;20468;-50
2023/05/22 10:16:06;;;;;;;8.27;6.37;;;22.90;88.40;;;;;;4996196;28;20456;-50
2023/05/22 10:18:33;;;;;;;10.77;6.57;;;23.00;87.70;;;;;;5005227;28;20832;-48
2023/05/22 10:21:01;;;;;;;8.83;6.03;;;22.90;88.30;;;;;;5003690;28;20506;-45
2023/05/22 10:23:30;;;;;;;10.13;6.60;;;23.00;88.70;;;;;;5000677;28;20476;-44
2023/05/22 10:25:57;;;;;;;11.63;7.50;;;23.00;88.70;;;;;;5004470;28;20463;-44
2023/05/22 10:28:29;;;;;;;10.57;7.17;;;23.10;88.30;;;;;;5000883;28;20469;-44
2023/05/22 10:31:01;;;;;;;11.97;6.77;;;23.10;88.20;;;;;;5002657;28;20963;-46
2023/05/22 10:33:31;;;;;;;7.87;6.47;;;23.10;88.70;;;;;;5004787;28;20451;-49
2023/05/22 10:36:07;;;;;;;11.30;6.50;;;23.10;88.20;;;;;;5007060;28;20459;-47
2023/05/22 10:39:06;;;;;;;9.20;7.30;;;23.20;88.70;;;;;;5006020;28;20490;-50
2023/05/22 10:41:33;;;;;;;9.20;7.03;;;23.20;89.30;;;;;;4999829;28;20551;-47
2023/05/22 10:44:02;;;;;;;10.43;9.33;;;23.30;88.70;;;;;;5004568;28;20920;-47
2023/05/22 10:46:32;;;;;;;7.67;6.97;;;23.30;89.00;;;;;;5001648;28;20487;-46
2023/05/22 10:48:59;;;;;;;9.43;6.97;;;23.30;88.70;;;;;;5010294;28;20452;-46
2023/05/22 10:51:26;;;;;;;10.43;8.60;;;23.40;88.90;;;;;;5007240;28;20482;-46
2023/05/22 10:53:59;;;;;;;10.03;7.50;;;23.40;88.60;;;;;;5004063;28;20550;-46
2023/05/22 10:56:35;;;;;;;7.50;6.70;;;23.50;88.90;;;;;;5006174;28;20462;-46
2023/05/22 10:59:03;;;;;;;8.93;7.77;;;23.50;88.70;;;;;;5005635;28;21005;-52
2023/05/22 11:01:33;;;;;;;11.27;7.30;;;23.50;89.10;;;;;;5004758;28;20835;-45
2023/05/22 11:04:01;;;;;;;10.40;8.43;;;23.50;88.50;;;;;;5006217;28;20558;-44
2023/05/22 11:06:36;;;;;;;10.30;7.10;;;23.60;88.80;;;;;;5006814;28;20468;-51
2023/05/22 11:09:29;;;;;;;8.40;7.60;;;23.60;88.40;;;;;;5004857;28;20470;-49
2023/05/22 11:12:16;;;;;;;7.53;6.80;;;23.70;88.80;;;;;;5007802;28;20467;-48
2023/05/22 11:14:43;;;;;;;9.90;6.40;;;23.80;89.00;;;;;;5006097;28;20452;-46
2023/05/22 11:17:13;;;;;;;8.70;7.80;;;23.80;88.60;;;;;;5001882;28;20452;-44
2023/05/22 11:19:40;;;;;;;9.70;7.70;;;23.80;88.00;;;;;;5005963;28;20899;-44
2023/05/22 11:22:07;;;;;;;9.13;8.13;;;23.90;88.90;;;;;;5010225;28;20491;-46
2023/05/22 11:24:37;;;;;;;10.10;8.77;;;23.90;88.60;;;;;;5009551;28;21010;-43
2023/05/22 11:27:06;;;;;;;10.70;7.73;;;23.90;88.50;;;;;;5004620;28;20468;-45
2023/05/22 11:29:34;;;;;;;11.87;8.37;;;24.00;89.00;;;;;;5004893;28;20471;-43
2023/05/22 11:32:01;;;;;;;9.40;8.50;;;24.00;88.80;;;;;;4999199;28;20464;-43
2023/05/22 11:34:28;;;;;;;8.17;7.37;;;24.00;88.00;;;;;;5004227;28;20460;-43
2023/05/22 11:36:58;;;;;;;15.30;8.00;;;24.00;88.40;;;;;;5012134;28;20452;-43
2023/05/22 11:39:25;;;;;;;13.53;8.63;;;24.10;88.20;;;;;;5006385;28;21082;-44
2023/05/22 11:41:54;;;;;;;10.57;9.47;;;24.10;88.60;;;;;;5004854;28;20503;-52
2023/05/22 11:44:20;;;;;;;14.67;8.30;;;24.20;88.90;;;;;;5004301;28;20487;-48
2023/05/22 11:46:47;;;;;;;15.30;9.50;;;24.20;88.80;;;;;;5006221;28;20475;-48
2023/05/22 11:49:14;;;;;;;10.27;9.27;;;24.20;89.10;;;;;;5005654;28;20470;-53
2023/05/22 11:51:40;;;;;;;10.67;9.57;;;24.20;88.90;;;;;;5008442;28;20839;-43
2023/05/22 11:54:07;;;;;;;12.97;9.60;;;24.20;89.20;;;;;;5004062;28;20479;-46
2023/05/22 11:56:34;;;;;;;11.20;9.87;;;24.20;88.80;;;;;;5002086;28;20495;-48
2023/05/22 11:59:02;;;;;;;11.73;10.47;;;24.30;89.70;;;;;;5003015;28;20475;-46
2023/05/22 12:01:29;;;;;;;12.10;9.37;;;24.30;89.50;;;;;;5005161;28;20985;-45
2023/05/22 12:03:56;;;;;;;11.20;9.63;;;24.30;88.90;;;;;;5003687;28;20921;-43
2023/05/22 12:06:22;;;;;;;10.23;8.77;;;24.30;89.00;;;;;;5005049;28;20834;-45
2023/05/22 12:08:49;;;;;;;17.33;10.30;;;24.40;88.80;;;;;;5000763;28;20469;-45
2023/05/22 12:11:16;;;;;;;12.73;9.57;;;24.40;88.80;;;;;;5007567;28;20464;-51
2023/05/22 12:13:44;;;;;;;11.83;9.73;;;24.40;88.90;;;;;;5007126;28;20468;-47
2023/05/22 12:16:21;;;;;;;13.03;9.40;;;24.40;88.80;;;;;;5004982;28;20458;-46
2023/05/22 12:18:51;;;;;;;13.00;9.50;;;24.50;88.70;;;;;;5005239;28;20875;-46
2023/05/22 12:21:19;;;;;;;9.03;8.13;;;24.50;88.30;;;;;;5007238;28;20467;-43
2023/05/22 12:23:49;;;;;;;9.30;8.40;;;24.50;88.20;;;;;;5003103;28;20467;-43
2023/05/22 12:26:16;;;;;;;10.93;9.97;;;24.50;88.10;;;;;;5000082;28;20855;-44
2023/05/22 12:28:43;;;;;;;11.43;9.63;;;24.50;88.70;;;;;;4998691;28;20900;-46
2023/05/22 12:31:10;;;;;;;10.63;8.80;;;24.60;88.40;;;;;;4995383;28;20461;-44
2023/05/22 12:33:40;;;;;;;11.47;10.27;;;24.60;88.50;;;;;;5002292;28;20510;-50
2023/05/22 12:36:08;;;;;;;10.77;9.77;;;24.60;88.60;;;;;;5001860;28;20488;-49
2023/05/22 12:38:37;;;;;;;11.37;10.23;;;24.60;88.60;;;;;;5006150;28;20522;-46
2023/05/22 12:41:04;;;;;;;12.23;11.13;;;24.70;88.50;;;;;;5002973;28;20963;-48
2023/05/22 12:43:31;;;;;;;12.03;10.47;;;24.60;88.70;;;;;;5009379;28;20955;-44
2023/05/22 12:45:58;;;;;;;11.80;10.80;;;24.70;88.70;;;;;;5007367;28;20463;-47
2023/05/22 12:48:25;;;;;;;11.47;10.47;;;24.70;88.50;;;;;;5005129;28;20460;-47
2023/05/22 12:50:54;;;;;;;10.87;9.80;;;24.80;88.50;;;;;;5008214;28;20519;-47